sensor_id;sensor_type;location;lat;lon;timestamp;P1;durP1;ratioP1;P2;durP2;ratioP2
33794;SDS011;51430;52.242;21.118;2023-06-26T00:00:12;10.90;;;9.00;;
33794;SDS011;51430;52.242;21.118;2023-06-26T00:03:00;9.70;;;8.60;;
33794;SDS011;51430;52.242;21.118;2023-06-26T00:05:31;10.60;;;8.60;;
33794;SDS011;51430;52.242;21.118;2023-06-26T00:08:00;10.20;;;9.20;;
33794;SDS011;51430;52.242;21.118;2023-06-26T00:10:28;12.20;;;9.30;;
33794;SDS011;51430;52.242;21.118;2023-06-26T00:12:55;9.80;;;8.60;;
33794;SDS011;51430;52.242;21.118;2023-06-26T00:15:23;10.40;;;9.40;;
33794;SDS011;51430;52.242;21.118;2023-06-26T00:17:51;9.70;;;8.80;;
33794;SDS011;51430;52.242;21.118;2023-06-26T00:20:19;10.10;;;9.00;;
33794;SDS011;51430;52.242;21.118;2023-06-26T00:22:47;10.50;;;9.30;;
33794;SDS011;51430;52.242;21.118;2023-06-26T00:25:18;10.10;;;9.00;;
33794;SDS011;51430;52.242;21.118;2023-06-26T00:27:46;10.20;;;9.20;;
33794;SDS011;51430;52.242;21.118;2023-06-26T00:30:14;11.80;;;9.30;;
33794;SDS011;51430;52.242;21.118;2023-06-26T00:32:42;11.00;;;9.90;;
33794;SDS011;51430;52.242;21.118;2023-06-26T00:35:10;10.60;;;9.30;;
33794;SDS011;51430;52.242;21.118;2023-06-26T00:37:37;10.50;;;9.50;;
33794;SDS011;51430;52.242;21.118;2023-06-26T00:40:06;11.60;;;10.00;;
33794;SDS011;51430;52.242;21.118;2023-06-26T00:42:36;10.60;;;9.60;;
33794;SDS011;51430;52.242;21.118;2023-06-26T00:45:05;10.60;;;9.60;;
33794;SDS011;51430;52.242;21.118;2023-06-26T00:47:34;12.90;;;10.20;;
33794;SDS011;51430;52.242;21.118;2023-06-26T00:50:02;10.80;;;9.80;;
33794;SDS011;51430;52.242;21.118;2023-06-26T00:52:32;11.80;;;10.10;;
33794;SDS011;51430;52.242;21.118;2023-06-26T00:55:00;10.90;;;9.90;;
33794;SDS011;51430;52.242;21.118;2023-06-26T00:57:30;11.10;;;9.70;;
33794;SDS011;51430;52.242;21.118;2023-06-26T00:59:59;10.90;;;9.90;;
33794;SDS011;51430;52.242;21.118;2023-06-26T01:02:30;11.40;;;9.80;;
33794;SDS011;51430;52.242;21.118;2023-06-26T01:05:01;10.20;;;9.20;;
33794;SDS011;51430;52.242;21.118;2023-06-26T01:07:35;11.00;;;9.20;;
33794;SDS011;51430;52.242;21.118;2023-06-26T01:10:06;12.20;;;9.30;;
33794;SDS011;51430;52.242;21.118;2023-06-26T01:12:35;10.60;;;8.80;;
33794;SDS011;51430;52.242;21.118;2023-06-26T01:15:06;9.50;;;8.50;;
33794;SDS011;51430;52.242;21.118;2023-06-26T01:17:36;9.70;;;8.80;;
33794;SDS011;51430;52.242;21.118;2023-06-26T01:20:05;9.90;;;9.00;;
33794;SDS011;51430;52.242;21.118;2023-06-26T01:22:39;11.20;;;9.40;;
33794;SDS011;51430;52.242;21.118;2023-06-26T01:27:52;10.60;;;9.50;;
33794;SDS011;51430;52.242;21.118;2023-06-26T01:30:22;12.20;;;10.10;;
33794;SDS011;51430;52.242;21.118;2023-06-26T01:32:53;11.80;;;10.20;;
33794;SDS011;51430;52.242;21.118;2023-06-26T01:35:21;12.20;;;9.60;;
33794;SDS011;51430;52.242;21.118;2023-06-26T01:37:49;11.20;;;9.90;;
33794;SDS011;51430;52.242;21.118;2023-06-26T01:40:17;12.10;;;9.60;;
33794;SDS011;51430;52.242;21.118;2023-06-26T01:42:45;10.70;;;9.60;;
33794;SDS011;51430;52.242;21.118;2023-06-26T01:45:14;11.60;;;10.30;;
33794;SDS011;51430;52.242;21.118;2023-06-26T01:47:51;11.20;;;10.10;;
33794;SDS011;51430;52.242;21.118;2023-06-26T01:50:24;11.00;;;9.90;;
33794;SDS011;51430;52.242;21.118;2023-06-26T01:53:04;11.50;;;9.90;;
33794;SDS011;51430;52.242;21.118;2023-06-26T01:58:03;11.80;;;10.70;;
33794;SDS011;51430;52.242;21.118;2023-06-26T02:00:31;11.60;;;9.90;;
33794;SDS011;51430;52.242;21.118;2023-06-26T02:03:01;11.30;;;10.10;;
33794;SDS011;51430;52.242;21.118;2023-06-26T02:05:29;11.30;;;10.20;;
33794;SDS011;51430;52.242;21.118;2023-06-26T02:07:58;11.00;;;9.90;;
33794;SDS011;51430;52.242;21.118;2023-06-26T02:10:26;11.90;;;10.80;;
33794;SDS011;51430;52.242;21.118;2023-06-26T02:12:54;11.20;;;10.00;;
33794;SDS011;51430;52.242;21.118;2023-06-26T02:15:22;11.60;;;10.50;;
33794;SDS011;51430;52.242;21.118;2023-06-26T02:17:49;12.30;;;10.60;;
33794;SDS011;51430;52.242;21.118;2023-06-26T02:20:18;12.40;;;10.50;;
33794;SDS011;51430;52.242;21.118;2023-06-26T02:22:45;11.90;;;10.60;;
33794;SDS011;51430;52.242;21.118;2023-06-26T02:25:13;12.20;;;11.00;;
33794;SDS011;51430;52.242;21.118;2023-06-26T02:27:41;12.60;;;10.80;;
33794;SDS011;51430;52.242;21.118;2023-06-26T02:30:10;12.60;;;11.30;;
33794;SDS011;51430;52.242;21.118;2023-06-26T02:32:38;12.60;;;11.30;;
33794;SDS011;51430;52.242;21.118;2023-06-26T02:35:06;16.40;;;11.70;;
33794;SDS011;51430;52.242;21.118;2023-06-26T02:37:35;12.40;;;11.10;;
33794;SDS011;51430;52.242;21.118;2023-06-26T02:40:03;13.10;;;11.80;;
33794;SDS011;51430;52.242;21.118;2023-06-26T02:42:31;12.90;;;11.60;;
33794;SDS011;51430;52.242;21.118;2023-06-26T02:44:59;13.40;;;12.00;;
33794;SDS011;51430;52.242;21.118;2023-06-26T02:47:27;13.90;;;12.40;;
33794;SDS011;51430;52.242;21.118;2023-06-26T02:49:55;13.40;;;12.00;;
33794;SDS011;51430;52.242;21.118;2023-06-26T02:52:23;13.00;;;11.70;;
33794;SDS011;51430;52.242;21.118;2023-06-26T02:54:51;13.30;;;11.90;;
33794;SDS011;51430;52.242;21.118;2023-06-26T02:57:19;13.00;;;11.70;;
33794;SDS011;51430;52.242;21.118;2023-06-26T02:59:47;12.50;;;11.30;;
33794;SDS011;51430;52.242;21.118;2023-06-26T03:02:14;13.50;;;11.60;;
33794;SDS011;51430;52.242;21.118;2023-06-26T03:04:42;12.60;;;11.30;;
33794;SDS011;51430;52.242;21.118;2023-06-26T03:07:10;12.50;;;10.90;;
33794;SDS011;51430;52.242;21.118;2023-06-26T03:09:38;12.70;;;11.50;;
33794;SDS011;51430;52.242;21.118;2023-06-26T03:12:06;12.30;;;10.90;;
33794;SDS011;51430;52.242;21.118;2023-06-26T03:14:35;12.10;;;10.80;;
33794;SDS011;51430;52.242;21.118;2023-06-26T03:17:02;14.30;;;11.20;;
33794;SDS011;51430;52.242;21.118;2023-06-26T03:19:31;11.60;;;10.50;;
33794;SDS011;51430;52.242;21.118;2023-06-26T03:21:59;13.50;;;11.50;;
33794;SDS011;51430;52.242;21.118;2023-06-26T03:24:27;12.00;;;10.80;;
33794;SDS011;51430;52.242;21.118;2023-06-26T03:26:55;13.30;;;10.90;;
33794;SDS011;51430;52.242;21.118;2023-06-26T03:29:23;12.10;;;10.70;;
33794;SDS011;51430;52.242;21.118;2023-06-26T03:31:50;12.00;;;10.80;;
33794;SDS011;51430;52.242;21.118;2023-06-26T03:34:18;11.60;;;10.60;;
33794;SDS011;51430;52.242;21.118;2023-06-26T03:36:47;12.00;;;10.80;;
33794;SDS011;51430;52.242;21.118;2023-06-26T03:39:15;12.60;;;11.40;;
33794;SDS011;51430;52.242;21.118;2023-06-26T03:41:43;12.50;;;10.80;;
33794;SDS011;51430;52.242;21.118;2023-06-26T03:44:11;11.80;;;10.70;;
33794;SDS011;51430;52.242;21.118;2023-06-26T03:46:39;12.10;;;10.90;;
33794;SDS011;51430;52.242;21.118;2023-06-26T03:49:07;11.70;;;10.60;;
33794;SDS011;51430;52.242;21.118;2023-06-26T03:51:37;12.20;;;10.90;;
33794;SDS011;51430;52.242;21.118;2023-06-26T03:54:05;12.10;;;10.80;;
33794;SDS011;51430;52.242;21.118;2023-06-26T03:56:33;12.50;;;10.80;;
33794;SDS011;51430;52.242;21.118;2023-06-26T03:59:01;12.10;;;10.80;;
33794;SDS011;51430;52.242;21.118;2023-06-26T04:01:29;12.20;;;10.90;;
33794;SDS011;51430;52.242;21.118;2023-06-26T04:03:57;11.60;;;10.50;;
33794;SDS011;51430;52.242;21.118;2023-06-26T04:06:25;11.90;;;10.70;;
33794;SDS011;51430;52.242;21.118;2023-06-26T04:08:52;12.20;;;11.00;;
33794;SDS011;51430;52.242;21.118;2023-06-26T04:11:20;11.90;;;10.70;;
33794;SDS011;51430;52.242;21.118;2023-06-26T04:13:48;12.60;;;11.30;;
33794;SDS011;51430;52.242;21.118;2023-06-26T04:16:16;13.10;;;11.80;;
33794;SDS011;51430;52.242;21.118;2023-06-26T04:18:46;12.80;;;11.60;;
33794;SDS011;51430;52.242;21.118;2023-06-26T04:21:14;13.00;;;11.60;;
33794;SDS011;51430;52.242;21.118;2023-06-26T04:23:43;13.00;;;11.70;;
33794;SDS011;51430;52.242;21.118;2023-06-26T04:26:11;13.00;;;11.80;;
33794;SDS011;51430;52.242;21.118;2023-06-26T04:28:42;12.90;;;11.70;;
33794;SDS011;51430;52.242;21.118;2023-06-26T04:31:11;12.80;;;11.50;;
33794;SDS011;51430;52.242;21.118;2023-06-26T04:33:39;12.20;;;11.10;;
33794;SDS011;51430;52.242;21.118;2023-06-26T04:36:10;13.20;;;12.00;;
33794;SDS011;51430;52.242;21.118;2023-06-26T04:38:38;12.90;;;11.80;;
33794;SDS011;51430;52.242;21.118;2023-06-26T04:41:07;12.50;;;11.40;;
33794;SDS011;51430;52.242;21.118;2023-06-26T04:43:35;12.90;;;11.00;;
33794;SDS011;51430;52.242;21.118;2023-06-26T04:46:03;12.50;;;11.30;;
33794;SDS011;51430;52.242;21.118;2023-06-26T04:48:32;14.30;;;11.90;;
33794;SDS011;51430;52.242;21.118;2023-06-26T04:51:00;12.70;;;11.50;;
33794;SDS011;51430;52.242;21.118;2023-06-26T04:53:28;12.90;;;11.40;;
33794;SDS011;51430;52.242;21.118;2023-06-26T04:55:56;13.20;;;11.70;;
33794;SDS011;51430;52.242;21.118;2023-06-26T04:58:24;13.10;;;11.70;;
33794;SDS011;51430;52.242;21.118;2023-06-26T05:00:51;12.90;;;11.60;;
33794;SDS011;51430;52.242;21.118;2023-06-26T05:03:19;12.90;;;11.30;;
33794;SDS011;51430;52.242;21.118;2023-06-26T05:05:48;12.00;;;10.80;;
33794;SDS011;51430;52.242;21.118;2023-06-26T05:08:25;11.40;;;10.40;;
33794;SDS011;51430;52.242;21.118;2023-06-26T05:10:56;13.30;;;12.00;;
33794;SDS011;51430;52.242;21.118;2023-06-26T05:13:25;13.20;;;12.00;;
33794;SDS011;51430;52.242;21.118;2023-06-26T05:15:54;13.70;;;12.40;;
33794;SDS011;51430;52.242;21.118;2023-06-26T05:18:21;14.40;;;13.00;;
33794;SDS011;51430;52.242;21.118;2023-06-26T05:20:49;14.50;;;13.10;;
33794;SDS011;51430;52.242;21.118;2023-06-26T05:23:17;14.10;;;12.80;;
33794;SDS011;51430;52.242;21.118;2023-06-26T05:25:46;14.90;;;13.50;;
33794;SDS011;51430;52.242;21.118;2023-06-26T05:28:14;15.80;;;14.30;;
33794;SDS011;51430;52.242;21.118;2023-06-26T05:30:43;15.30;;;13.70;;
33794;SDS011;51430;52.242;21.118;2023-06-26T05:33:11;16.20;;;13.60;;
33794;SDS011;51430;52.242;21.118;2023-06-26T05:35:42;15.10;;;13.50;;
33794;SDS011;51430;52.242;21.118;2023-06-26T05:38:12;15.50;;;13.70;;
33794;SDS011;51430;52.242;21.118;2023-06-26T05:40:41;15.20;;;13.70;;
33794;SDS011;51430;52.242;21.118;2023-06-26T05:43:09;14.80;;;13.00;;
33794;SDS011;51430;52.242;21.118;2023-06-26T05:45:37;13.50;;;12.10;;
33794;SDS011;51430;52.242;21.118;2023-06-26T05:48:05;15.90;;;12.20;;
33794;SDS011;51430;52.242;21.118;2023-06-26T05:50:33;15.20;;;11.70;;
33794;SDS011;51430;52.242;21.118;2023-06-26T05:53:01;14.60;;;12.30;;
33794;SDS011;51430;52.242;21.118;2023-06-26T05:55:30;14.30;;;11.70;;
33794;SDS011;51430;52.242;21.118;2023-06-26T05:57:59;13.30;;;11.40;;
33794;SDS011;51430;52.242;21.118;2023-06-26T06:07:52;14.20;;;9.30;;
33794;SDS011;51430;52.242;21.118;2023-06-26T06:10:20;14.10;;;10.00;;
33794;SDS011;51430;52.242;21.118;2023-06-26T06:12:48;17.00;;;11.00;;
33794;SDS011;51430;52.242;21.118;2023-06-26T06:15:16;15.40;;;10.90;;
33794;SDS011;51430;52.242;21.118;2023-06-26T06:17:43;17.10;;;10.40;;
33794;SDS011;51430;52.242;21.118;2023-06-26T06:20:11;35.90;;;12.50;;
33794;SDS011;51430;52.242;21.118;2023-06-26T06:22:39;22.50;;;10.80;;
33794;SDS011;51430;52.242;21.118;2023-06-26T06:25:07;13.90;;;10.10;;
33794;SDS011;51430;52.242;21.118;2023-06-26T06:27:35;13.10;;;9.30;;
33794;SDS011;51430;52.242;21.118;2023-06-26T06:30:03;11.10;;;8.20;;
33794;SDS011;51430;52.242;21.118;2023-06-26T06:32:35;9.90;;;7.90;;
33794;SDS011;51430;52.242;21.118;2023-06-26T06:35:05;9.30;;;8.30;;
33794;SDS011;51430;52.242;21.118;2023-06-26T06:37:38;12.40;;;9.10;;
33794;SDS011;51430;52.242;21.118;2023-06-26T06:40:06;10.60;;;9.50;;
33794;SDS011;51430;52.242;21.118;2023-06-26T06:42:35;11.50;;;8.80;;
33794;SDS011;51430;52.242;21.118;2023-06-26T06:45:03;9.00;;;8.20;;
33794;SDS011;51430;52.242;21.118;2023-06-26T06:47:34;8.60;;;7.20;;
33794;SDS011;51430;52.242;21.118;2023-06-26T06:50:02;10.50;;;7.10;;
33794;SDS011;51430;52.242;21.118;2023-06-26T06:52:38;7.30;;;6.60;;
33794;SDS011;51430;52.242;21.118;2023-06-26T06:55:08;8.70;;;6.10;;
33794;SDS011;51430;52.242;21.118;2023-06-26T06:57:37;7.10;;;5.50;;
33794;SDS011;51430;52.242;21.118;2023-06-26T07:00:10;5.30;;;4.80;;
33794;SDS011;51430;52.242;21.118;2023-06-26T07:02:39;4.60;;;4.10;;
33794;SDS011;51430;52.242;21.118;2023-06-26T07:05:10;4.80;;;4.40;;
33794;SDS011;51430;52.242;21.118;2023-06-26T07:07:38;6.50;;;4.20;;
33794;SDS011;51430;52.242;21.118;2023-06-26T07:10:10;5.20;;;3.80;;
33794;SDS011;51430;52.242;21.118;2023-06-26T07:12:39;5.10;;;3.70;;
33794;SDS011;51430;52.242;21.118;2023-06-26T07:15:07;6.90;;;4.30;;
33794;SDS011;51430;52.242;21.118;2023-06-26T07:17:36;5.40;;;4.00;;
33794;SDS011;51430;52.242;21.118;2023-06-26T07:20:07;5.80;;;4.40;;
33794;SDS011;51430;52.242;21.118;2023-06-26T07:22:38;5.00;;;3.90;;
33794;SDS011;51430;52.242;21.118;2023-06-26T07:25:07;7.40;;;4.20;;
33794;SDS011;51430;52.242;21.118;2023-06-26T07:27:38;4.80;;;3.70;;
33794;SDS011;51430;52.242;21.118;2023-06-26T07:30:07;5.10;;;3.60;;
33794;SDS011;51430;52.242;21.118;2023-06-26T07:32:39;4.00;;;3.60;;
33794;SDS011;51430;52.242;21.118;2023-06-26T07:35:10;4.20;;;3.80;;
33794;SDS011;51430;52.242;21.118;2023-06-26T07:37:38;5.50;;;3.70;;
33794;SDS011;51430;52.242;21.118;2023-06-26T07:40:06;4.00;;;3.60;;
33794;SDS011;51430;52.242;21.118;2023-06-26T07:42:34;4.30;;;3.70;;
33794;SDS011;51430;52.242;21.118;2023-06-26T07:45:03;4.70;;;4.10;;
33794;SDS011;51430;52.242;21.118;2023-06-26T07:47:37;4.30;;;3.90;;
33794;SDS011;51430;52.242;21.118;2023-06-26T07:50:06;4.10;;;3.70;;
33794;SDS011;51430;52.242;21.118;2023-06-26T07:52:34;4.60;;;3.80;;
33794;SDS011;51430;52.242;21.118;2023-06-26T07:55:02;4.80;;;3.90;;
33794;SDS011;51430;52.242;21.118;2023-06-26T07:57:32;4.30;;;3.90;;
33794;SDS011;51430;52.242;21.118;2023-06-26T08:00:00;4.60;;;3.80;;
33794;SDS011;51430;52.242;21.118;2023-06-26T08:02:28;5.90;;;3.80;;
33794;SDS011;51430;52.242;21.118;2023-06-26T08:04:56;5.40;;;3.80;;
33794;SDS011;51430;52.242;21.118;2023-06-26T08:07:24;4.70;;;3.80;;
33794;SDS011;51430;52.242;21.118;2023-06-26T08:09:52;6.20;;;4.20;;
33794;SDS011;51430;52.242;21.118;2023-06-26T08:12:20;6.00;;;3.80;;
33794;SDS011;51430;52.242;21.118;2023-06-26T08:14:48;4.30;;;3.90;;
33794;SDS011;51430;52.242;21.118;2023-06-26T08:17:16;6.10;;;3.90;;
33794;SDS011;51430;52.242;21.118;2023-06-26T08:19:44;4.90;;;3.80;;
33794;SDS011;51430;52.242;21.118;2023-06-26T08:22:12;6.00;;;4.30;;
33794;SDS011;51430;52.242;21.118;2023-06-26T08:27:41;5.60;;;4.40;;
33794;SDS011;51430;52.242;21.118;2023-06-26T08:30:09;5.30;;;3.80;;
33794;SDS011;51430;52.242;21.118;2023-06-26T08:32:38;4.20;;;3.70;;
33794;SDS011;51430;52.242;21.118;2023-06-26T08:35:06;4.00;;;3.70;;
33794;SDS011;51430;52.242;21.118;2023-06-26T08:37:37;25.50;;;20.60;;
33794;SDS011;51430;52.242;21.118;2023-06-26T08:40:18;5.80;;;3.90;;
33794;SDS011;51430;52.242;21.118;2023-06-26T08:42:46;4.40;;;4.00;;
33794;SDS011;51430;52.242;21.118;2023-06-26T08:45:14;4.10;;;3.40;;
33794;SDS011;51430;52.242;21.118;2023-06-26T08:47:42;4.40;;;3.60;;
33794;SDS011;51430;52.242;21.118;2023-06-26T08:50:13;5.70;;;4.10;;
33794;SDS011;51430;52.242;21.118;2023-06-26T08:52:45;7.40;;;4.30;;
33794;SDS011;51430;52.242;21.118;2023-06-26T08:55:41;8.30;;;3.70;;
33794;SDS011;51430;52.242;21.118;2023-06-26T08:58:10;4.30;;;3.70;;
33794;SDS011;51430;52.242;21.118;2023-06-26T09:00:40;5.30;;;3.50;;
33794;SDS011;51430;52.242;21.118;2023-06-26T09:03:08;4.50;;;3.50;;
33794;SDS011;51430;52.242;21.118;2023-06-26T09:05:37;4.50;;;3.80;;
33794;SDS011;51430;52.242;21.118;2023-06-26T09:08:06;4.10;;;3.80;;
33794;SDS011;51430;52.242;21.118;2023-06-26T09:10:34;4.90;;;3.60;;
33794;SDS011;51430;52.242;21.118;2023-06-26T09:13:03;4.90;;;3.50;;
33794;SDS011;51430;52.242;21.118;2023-06-26T09:15:38;4.20;;;3.50;;
33794;SDS011;51430;52.242;21.118;2023-06-26T09:18:10;3.90;;;3.50;;
33794;SDS011;51430;52.242;21.118;2023-06-26T09:20:39;5.00;;;3.50;;
33794;SDS011;51430;52.242;21.118;2023-06-26T09:23:08;4.20;;;3.50;;
33794;SDS011;51430;52.242;21.118;2023-06-26T09:25:38;4.20;;;3.40;;
33794;SDS011;51430;52.242;21.118;2023-06-26T09:28:09;4.00;;;3.60;;
33794;SDS011;51430;52.242;21.118;2023-06-26T09:30:37;4.60;;;3.40;;
33794;SDS011;51430;52.242;21.118;2023-06-26T09:33:14;3.80;;;3.50;;
33794;SDS011;51430;52.242;21.118;2023-06-26T09:35:44;3.90;;;3.60;;
33794;SDS011;51430;52.242;21.118;2023-06-26T09:38:15;8.70;;;3.50;;
33794;SDS011;51430;52.242;21.118;2023-06-26T09:40:43;7.80;;;3.60;;
33794;SDS011;51430;52.242;21.118;2023-06-26T09:43:12;7.20;;;5.20;;
33794;SDS011;51430;52.242;21.118;2023-06-26T09:45:41;7.00;;;4.30;;
33794;SDS011;51430;52.242;21.118;2023-06-26T09:48:09;11.50;;;7.10;;
33794;SDS011;51430;52.242;21.118;2023-06-26T09:50:37;7.50;;;4.70;;
33794;SDS011;51430;52.242;21.118;2023-06-26T09:53:29;3.60;;;3.30;;
33794;SDS011;51430;52.242;21.118;2023-06-26T09:55:57;3.90;;;3.00;;
33794;SDS011;51430;52.242;21.118;2023-06-26T09:58:25;4.20;;;3.00;;
33794;SDS011;51430;52.242;21.118;2023-06-26T10:00:55;6.70;;;4.10;;
33794;SDS011;51430;52.242;21.118;2023-06-26T10:03:23;5.60;;;4.10;;
33794;SDS011;51430;52.242;21.118;2023-06-26T10:05:52;5.80;;;3.90;;
33794;SDS011;51430;52.242;21.118;2023-06-26T10:08:20;6.50;;;4.30;;
33794;SDS011;51430;52.242;21.118;2023-06-26T10:10:48;6.30;;;3.60;;
33794;SDS011;51430;52.242;21.118;2023-06-26T10:13:19;5.70;;;3.80;;
33794;SDS011;51430;52.242;21.118;2023-06-26T10:15:52;4.30;;;3.40;;
33794;SDS011;51430;52.242;21.118;2023-06-26T10:18:23;5.40;;;3.80;;
33794;SDS011;51430;52.242;21.118;2023-06-26T10:20:55;4.10;;;3.70;;
33794;SDS011;51430;52.242;21.118;2023-06-26T10:23:25;5.20;;;4.20;;
33794;SDS011;51430;52.242;21.118;2023-06-26T10:25:55;4.30;;;3.50;;
33794;SDS011;51430;52.242;21.118;2023-06-26T10:28:29;5.10;;;3.40;;
33794;SDS011;51430;52.242;21.118;2023-06-26T10:31:01;4.50;;;3.60;;
33794;SDS011;51430;52.242;21.118;2023-06-26T10:33:31;3.50;;;3.20;;
33794;SDS011;51430;52.242;21.118;2023-06-26T10:36:20;5.80;;;3.70;;
33794;SDS011;51430;52.242;21.118;2023-06-26T10:38:55;5.00;;;3.60;;
33794;SDS011;51430;52.242;21.118;2023-06-26T10:41:24;6.60;;;5.50;;
33794;SDS011;51430;52.242;21.118;2023-06-26T10:46:33;8.80;;;5.90;;
33794;SDS011;51430;52.242;21.118;2023-06-26T10:49:15;11.10;;;8.40;;
33794;SDS011;51430;52.242;21.118;2023-06-26T10:51:47;11.40;;;9.90;;
33794;SDS011;51430;52.242;21.118;2023-06-26T10:54:17;7.20;;;6.40;;
33794;SDS011;51430;52.242;21.118;2023-06-26T10:56:50;6.20;;;5.20;;
33794;SDS011;51430;52.242;21.118;2023-06-26T10:59:24;5.00;;;3.10;;
33794;SDS011;51430;52.242;21.118;2023-06-26T11:01:54;4.70;;;4.00;;
33794;SDS011;51430;52.242;21.118;2023-06-26T11:04:45;4.60;;;3.50;;
33794;SDS011;51430;52.242;21.118;2023-06-26T11:07:24;7.20;;;3.90;;
33794;SDS011;51430;52.242;21.118;2023-06-26T11:09:54;4.60;;;3.20;;
33794;SDS011;51430;52.242;21.118;2023-06-26T11:16:38;18.00;;;9.70;;
33794;SDS011;51430;52.242;21.118;2023-06-26T11:19:10;9.00;;;7.90;;
33794;SDS011;51430;52.242;21.118;2023-06-26T11:21:38;6.20;;;5.60;;
33794;SDS011;51430;52.242;21.118;2023-06-26T11:24:07;5.60;;;3.10;;
33794;SDS011;51430;52.242;21.118;2023-06-26T11:26:39;6.70;;;3.40;;
33794;SDS011;51430;52.242;21.118;2023-06-26T11:29:09;5.70;;;3.50;;
33794;SDS011;51430;52.242;21.118;2023-06-26T11:31:39;5.10;;;3.50;;
33794;SDS011;51430;52.242;21.118;2023-06-26T11:34:09;5.40;;;3.60;;
33794;SDS011;51430;52.242;21.118;2023-06-26T11:36:41;4.80;;;3.50;;
33794;SDS011;51430;52.242;21.118;2023-06-26T11:39:10;5.10;;;3.20;;
33794;SDS011;51430;52.242;21.118;2023-06-26T11:41:39;5.10;;;3.50;;
33794;SDS011;51430;52.242;21.118;2023-06-26T11:44:09;3.50;;;3.00;;
33794;SDS011;51430;52.242;21.118;2023-06-26T11:46:37;4.30;;;3.10;;
33794;SDS011;51430;52.242;21.118;2023-06-26T11:49:06;3.40;;;3.10;;
33794;SDS011;51430;52.242;21.118;2023-06-26T11:51:35;3.50;;;3.00;;
33794;SDS011;51430;52.242;21.118;2023-06-26T11:54:04;3.40;;;3.10;;
33794;SDS011;51430;52.242;21.118;2023-06-26T11:56:32;4.00;;;3.10;;
33794;SDS011;51430;52.242;21.118;2023-06-26T11:59:01;4.40;;;3.30;;
33794;SDS011;51430;52.242;21.118;2023-06-26T12:01:42;5.80;;;3.10;;
33794;SDS011;51430;52.242;21.118;2023-06-26T12:04:15;7.40;;;3.30;;
33794;SDS011;51430;52.242;21.118;2023-06-26T12:06:46;3.40;;;3.10;;
33794;SDS011;51430;52.242;21.118;2023-06-26T12:09:17;3.50;;;3.20;;
33794;SDS011;51430;52.242;21.118;2023-06-26T12:11:47;4.90;;;3.30;;
33794;SDS011;51430;52.242;21.118;2023-06-26T12:14:20;4.30;;;3.00;;
33794;SDS011;51430;52.242;21.118;2023-06-26T12:16:49;4.10;;;3.20;;
33794;SDS011;51430;52.242;21.118;2023-06-26T12:19:24;4.30;;;3.90;;
33794;SDS011;51430;52.242;21.118;2023-06-26T12:21:55;6.50;;;3.70;;
33794;SDS011;51430;52.242;21.118;2023-06-26T12:24:24;4.70;;;3.40;;
33794;SDS011;51430;52.242;21.118;2023-06-26T12:26:53;3.90;;;2.70;;
33794;SDS011;51430;52.242;21.118;2023-06-26T12:29:32;4.70;;;3.00;;
33794;SDS011;51430;52.242;21.118;2023-06-26T12:32:00;5.30;;;3.00;;
33794;SDS011;51430;52.242;21.118;2023-06-26T12:34:47;3.10;;;2.80;;
33794;SDS011;51430;52.242;21.118;2023-06-26T12:37:20;4.50;;;3.10;;
33794;SDS011;51430;52.242;21.118;2023-06-26T12:39:52;3.30;;;2.90;;
33794;SDS011;51430;52.242;21.118;2023-06-26T12:42:25;4.80;;;3.20;;
33794;SDS011;51430;52.242;21.118;2023-06-26T12:44:54;3.80;;;3.20;;
33794;SDS011;51430;52.242;21.118;2023-06-26T12:47:25;4.80;;;3.40;;
33794;SDS011;51430;52.242;21.118;2023-06-26T12:49:55;3.20;;;2.90;;
33794;SDS011;51430;52.242;21.118;2023-06-26T12:52:24;6.20;;;3.40;;
33794;SDS011;51430;52.242;21.118;2023-06-26T12:54:53;4.00;;;3.10;;
33794;SDS011;51430;52.242;21.118;2023-06-26T12:57:24;5.10;;;3.20;;
33794;SDS011;51430;52.242;21.118;2023-06-26T12:59:52;4.70;;;3.10;;
33794;SDS011;51430;52.242;21.118;2023-06-26T13:02:20;3.90;;;2.90;;
33794;SDS011;51430;52.242;21.118;2023-06-26T13:04:50;3.30;;;2.70;;
33794;SDS011;51430;52.242;21.118;2023-06-26T13:07:18;2.90;;;2.70;;
33794;SDS011;51430;52.242;21.118;2023-06-26T13:09:46;3.30;;;3.00;;
33794;SDS011;51430;52.242;21.118;2023-06-26T13:12:16;4.30;;;3.10;;
33794;SDS011;51430;52.242;21.118;2023-06-26T13:14:44;3.40;;;3.10;;
33794;SDS011;51430;52.242;21.118;2023-06-26T13:17:12;3.60;;;2.90;;
33794;SDS011;51430;52.242;21.118;2023-06-26T13:19:40;3.20;;;2.90;;
33794;SDS011;51430;52.242;21.118;2023-06-26T13:22:08;3.30;;;3.00;;
33794;SDS011;51430;52.242;21.118;2023-06-26T13:24:36;4.20;;;3.00;;
33794;SDS011;51430;52.242;21.118;2023-06-26T13:27:04;3.90;;;3.00;;
33794;SDS011;51430;52.242;21.118;2023-06-26T13:29:32;4.00;;;3.00;;
33794;SDS011;51430;52.242;21.118;2023-06-26T13:32:00;3.50;;;3.00;;
33794;SDS011;51430;52.242;21.118;2023-06-26T13:34:28;4.50;;;3.00;;
33794;SDS011;51430;52.242;21.118;2023-06-26T13:36:56;4.60;;;2.90;;
33794;SDS011;51430;52.242;21.118;2023-06-26T13:39:27;4.20;;;3.10;;
33794;SDS011;51430;52.242;21.118;2023-06-26T13:41:55;4.50;;;3.00;;
33794;SDS011;51430;52.242;21.118;2023-06-26T13:44:23;4.40;;;3.00;;
33794;SDS011;51430;52.242;21.118;2023-06-26T13:47:07;5.80;;;3.20;;
33794;SDS011;51430;52.242;21.118;2023-06-26T13:49:37;5.20;;;3.00;;
33794;SDS011;51430;52.242;21.118;2023-06-26T13:52:06;4.60;;;2.90;;
33794;SDS011;51430;52.242;21.118;2023-06-26T13:54:35;3.40;;;2.90;;
33794;SDS011;51430;52.242;21.118;2023-06-26T13:57:06;3.90;;;3.00;;
33794;SDS011;51430;52.242;21.118;2023-06-26T13:59:37;4.80;;;2.90;;
33794;SDS011;51430;52.242;21.118;2023-06-26T14:02:07;6.60;;;3.10;;
33794;SDS011;51430;52.242;21.118;2023-06-26T14:04:36;4.50;;;2.80;;
33794;SDS011;51430;52.242;21.118;2023-06-26T14:07:05;3.70;;;3.00;;
33794;SDS011;51430;52.242;21.118;2023-06-26T14:09:34;4.90;;;3.10;;
33794;SDS011;51430;52.242;21.118;2023-06-26T14:12:02;3.30;;;3.00;;
33794;SDS011;51430;52.242;21.118;2023-06-26T14:14:31;4.20;;;2.90;;
33794;SDS011;51430;52.242;21.118;2023-06-26T14:16:59;5.60;;;2.90;;
33794;SDS011;51430;52.242;21.118;2023-06-26T14:19:27;3.70;;;3.10;;
33794;SDS011;51430;52.242;21.118;2023-06-26T14:21:55;4.00;;;2.80;;
33794;SDS011;51430;52.242;21.118;2023-06-26T14:24:25;6.50;;;3.30;;
33794;SDS011;51430;52.242;21.118;2023-06-26T14:26:53;5.00;;;2.80;;
33794;SDS011;51430;52.242;21.118;2023-06-26T14:29:21;4.50;;;2.90;;
33794;SDS011;51430;52.242;21.118;2023-06-26T14:31:49;3.00;;;2.70;;
33794;SDS011;51430;52.242;21.118;2023-06-26T14:34:19;5.80;;;2.90;;
33794;SDS011;51430;52.242;21.118;2023-06-26T14:36:47;5.30;;;3.10;;
33794;SDS011;51430;52.242;21.118;2023-06-26T14:39:15;3.20;;;2.90;;
33794;SDS011;51430;52.242;21.118;2023-06-26T14:41:45;2.90;;;2.50;;
33794;SDS011;51430;52.242;21.118;2023-06-26T14:44:16;3.90;;;2.90;;
33794;SDS011;51430;52.242;21.118;2023-06-26T14:46:45;3.50;;;2.80;;
33794;SDS011;51430;52.242;21.118;2023-06-26T14:49:13;3.40;;;2.80;;
33794;SDS011;51430;52.242;21.118;2023-06-26T14:54:49;3.10;;;2.90;;
33794;SDS011;51430;52.242;21.118;2023-06-26T14:58:45;3.40;;;3.00;;
33794;SDS011;51430;52.242;21.118;2023-06-26T15:01:18;3.60;;;2.80;;
33794;SDS011;51430;52.242;21.118;2023-06-26T15:03:51;4.30;;;3.10;;